Time;durP1;ratioP1;P1;durP2;ratioP2;P2;SDS_P1;SDS_P2;PMS_P1;PMS_P2;Temp;Humidity;BMP_temperature;BMP_pressure;BME280_temperature;BME280_humidity;BME280_pressure;Samples;Min_cycle;Max_cycle;Signal;HPM_P1;HPM_P2
2021/11/08 00:00:51;;;;;;;203.60;35.37;;;8.40;99.90;;;;;;5089610;28;20517;-75
2021/11/08 00:03:26;;;;;;;144.00;27.50;;;8.40;99.90;;;;;;5094203;28;20910;-75
2021/11/08 00:05:54;;;;;;;213.13;34.50;;;8.40;99.90;;;;;;5090565;28;20577;-75
2021/11/08 00:08:23;;;;;;;162.57;34.70;;;8.40;99.90;;;;;;5091284;28;20436;-75
2021/11/08 00:10:51;;;;;;;135.73;29.30;;;8.50;99.90;;;;;;5094079;28;20504;-75
2021/11/08 00:13:20;;;;;;;105.63;20.83;;;8.50;99.90;;;;;;5091485;28;20807;-75
2021/11/08 00:16:01;;;;;;;132.00;24.37;;;8.50;99.90;;;;;;5073654;28;20472;-75
2021/11/08 00:18:34;;;;;;;170.70;30.97;;;8.50;99.90;;;;;;5074861;28;20422;-75
2021/11/08 00:21:03;;;;;;;154.77;31.50;;;8.40;99.90;;;;;;5082759;28;20504;-75
2021/11/08 00:23:32;;;;;;;140.40;29.80;;;8.50;99.90;;;;;;5095233;28;20468;-75
2021/11/08 00:26:02;;;;;;;165.43;30.90;;;8.50;99.90;;;;;;5089410;28;20781;-75
2021/11/08 00:28:31;;;;;;;198.40;27.57;;;8.50;99.90;;;;;;5078284;28;20531;-75
2021/11/08 00:31:00;;;;;;;224.63;32.83;;;8.50;99.90;;;;;;5077363;28;20498;-75
2021/11/08 00:33:28;;;;;;;119.97;25.00;;;8.50;99.90;;;;;;5093576;28;20968;-75
2021/11/08 00:35:59;;;;;;;132.13;24.87;;;8.50;99.90;;;;;;5090906;28;20506;-75
2021/11/08 00:38:28;;;;;;;168.43;29.10;;;8.50;99.90;;;;;;5094708;28;20484;-75
2021/11/08 00:40:57;;;;;;;200.93;24.13;;;8.50;99.90;;;;;;5094960;28;21053;-75
2021/11/08 00:43:26;;;;;;;157.60;36.87;;;8.40;99.90;;;;;;5093022;28;20515;-75
2021/11/08 00:45:54;;;;;;;153.63;24.60;;;8.40;99.90;;;;;;5086996;28;20483;-75
2021/11/08 00:48:29;;;;;;;199.60;36.20;;;8.40;99.90;;;;;;5073051;28;20453;-75
2021/11/08 00:50:57;;;;;;;136.10;27.43;;;8.40;99.90;;;;;;5054188;28;20547;-75
2021/11/08 00:53:26;;;;;;;90.27;19.47;;;8.40;99.90;;;;;;5052950;28;20473;-75
2021/11/08 00:55:55;;;;;;;164.90;27.03;;;8.40;99.90;;;;;;5060432;28;20554;-75
2021/11/08 00:58:27;;;;;;;105.77;20.60;;;8.40;99.90;;;;;;5093094;28;20523;-75
2021/11/08 01:01:01;;;;;;;116.97;26.70;;;8.40;99.90;;;;;;5093016;28;20530;-75
2021/11/08 01:03:31;;;;;;;195.33;33.43;;;8.30;99.90;;;;;;5094533;28;20491;-75
2021/11/08 01:05:59;;;;;;;181.60;26.23;;;8.30;99.90;;;;;;5075325;28;20491;-75
2021/11/08 01:08:27;;;;;;;113.63;23.47;;;8.30;99.90;;;;;;5079265;28;20449;-75
2021/11/08 01:10:56;;;;;;;129.60;25.17;;;8.30;99.90;;;;;;5092149;28;20471;-75
2021/11/08 01:13:24;;;;;;;114.57;26.57;;;8.30;99.90;;;;;;5092805;28;20504;-75
2021/11/08 01:15:55;;;;;;;137.33;29.30;;;8.30;99.90;;;;;;5092809;28;20440;-75
2021/11/08 01:18:23;;;;;;;216.70;30.93;;;8.30;99.90;;;;;;5092881;28;20470;-75
2021/11/08 01:20:54;;;;;;;175.53;30.27;;;8.30;99.90;;;;;;5093010;28;20452;-75
2021/11/08 01:23:25;;;;;;;172.10;28.17;;;8.30;99.90;;;;;;5094180;28;20447;-75
2021/11/08 01:25:58;;;;;;;228.37;36.07;;;8.30;99.90;;;;;;5092601;28;20456;-75
2021/11/08 01:28:33;;;;;;;135.13;24.17;;;8.30;99.90;;;;;;5091416;28;21009;-75
2021/11/08 01:31:03;;;;;;;185.47;25.67;;;8.30;99.90;;;;;;5093913;28;20497;-75
2021/11/08 01:33:32;;;;;;;135.90;27.80;;;8.30;99.90;;;;;;5092395;28;20435;-75
2021/11/08 01:36:11;;;;;;;197.17;34.30;;;8.30;99.90;;;;;;5072192;28;20448;-75
2021/11/08 01:38:43;;;;;;;139.90;22.23;;;8.30;99.90;;;;;;5073782;28;20964;-75
2021/11/08 01:41:13;;;;;;;112.10;19.70;;;8.30;99.90;;;;;;5089554;28;20573;-75
2021/11/08 01:43:43;;;;;;;87.63;17.03;;;8.30;99.90;;;;;;5092344;28;20571;-75
2021/11/08 01:46:12;;;;;;;152.83;32.00;;;8.30;99.90;;;;;;5093868;28;20475;-75
2021/11/08 01:48:42;;;;;;;140.50;21.50;;;8.30;99.90;;;;;;5093914;28;20795;-75
2021/11/08 01:51:11;;;;;;;171.47;20.03;;;8.30;99.90;;;;;;5086972;28;20558;-75
2021/11/08 01:53:40;;;;;;;129.83;25.53;;;8.30;99.90;;;;;;5083331;28;20495;-75
2021/11/08 01:56:08;;;;;;;129.80;24.23;;;8.30;99.90;;;;;;5092256;28;20436;-75
2021/11/08 01:58:38;;;;;;;109.73;29.30;;;8.30;99.90;;;;;;5076765;28;20449;-75
2021/11/08 02:01:07;;;;;;;110.87;25.87;;;8.30;99.90;;;;;;5072223;28;20472;-75
2021/11/08 02:03:36;;;;;;;161.50;34.63;;;8.30;99.90;;;;;;5073040;28;20824;-75
2021/11/08 02:06:05;;;;;;;129.27;22.67;;;8.30;99.90;;;;;;5081353;28;20493;-75
2021/11/08 02:08:38;;;;;;;152.93;36.07;;;8.30;99.90;;;;;;5092145;28;20928;-75
2021/11/08 02:11:07;;;;;;;130.67;16.20;;;8.30;99.90;;;;;;5092003;28;20839;-75
2021/11/08 02:13:37;;;;;;;199.57;32.87;;;8.30;99.90;;;;;;5093521;28;20505;-75
2021/11/08 02:16:07;;;;;;;157.03;32.73;;;8.30;99.90;;;;;;5083045;28;20518;-75
2021/11/08 02:18:37;;;;;;;195.00;36.77;;;8.30;99.90;;;;;;5089451;28;20552;-75
2021/11/08 02:21:09;;;;;;;154.60;25.30;;;8.30;99.90;;;;;;5078377;28;20456;-75
2021/11/08 02:23:38;;;;;;;177.73;27.53;;;8.30;99.90;;;;;;5077756;28;20501;-75
2021/11/08 02:26:11;;;;;;;161.00;24.57;;;8.30;99.90;;;;;;5075756;28;20534;-75
2021/11/08 02:28:42;;;;;;;173.13;27.87;;;8.30;99.90;;;;;;5082640;28;20947;-75
2021/11/08 02:31:13;;;;;;;153.87;31.70;;;8.20;99.90;;;;;;5097665;28;20460;-75
2021/11/08 02:33:42;;;;;;;133.07;30.77;;;8.20;99.90;;;;;;5055679;28;20447;-75
2021/11/08 02:36:11;;;;;;;136.43;24.13;;;8.20;99.90;;;;;;5057140;28;20537;-75
2021/11/08 02:38:43;;;;;;;186.60;23.77;;;8.20;99.90;;;;;;5074355;28;20461;-75
2021/11/08 02:41:12;;;;;;;14.23;4.40;;;8.20;99.90;;;;;;5079646;28;20473;-75
2021/11/08 02:43:40;;;;;;;169.03;38.57;;;8.30;99.90;;;;;;5075777;28;20324;-75
2021/11/08 02:46:10;;;;;;;129.03;31.77;;;8.30;99.90;;;;;;5075473;28;20447;-75
2021/11/08 02:48:41;;;;;;;179.13;31.43;;;8.20;99.90;;;;;;5075416;28;20444;-75
2021/11/08 02:51:15;;;;;;;205.17;33.37;;;8.20;99.90;;;;;;5075289;28;20503;-75
2021/11/08 02:53:45;;;;;;;135.87;25.83;;;8.20;99.90;;;;;;5075325;28;20940;-75
2021/11/08 02:56:15;;;;;;;180.00;31.00;;;8.10;99.90;;;;;;5076744;28;20424;-75
2021/11/08 02:58:45;;;;;;;104.37;27.70;;;8.10;99.90;;;;;;5075130;28;20470;-75
2021/11/08 03:01:17;;;;;;;158.60;27.93;;;8.10;99.90;;;;;;5076594;28;20485;-75
2021/11/08 03:03:47;;;;;;;202.10;29.33;;;8.10;99.90;;;;;;5075280;28;20879;-75
2021/11/08 03:06:21;;;;;;;163.40;31.93;;;8.00;99.90;;;;;;5096880;28;20422;-75
2021/11/08 03:08:50;;;;;;;146.97;21.40;;;8.00;99.90;;;;;;5095357;28;20433;-75
2021/11/08 03:11:20;;;;;;;123.93;20.37;;;8.00;99.90;;;;;;5081080;28;20491;-75
2021/11/08 03:13:56;;;;;;;71.83;13.37;;;8.00;99.90;;;;;;5076464;28;20877;-75
2021/11/08 03:16:29;;;;;;;194.20;28.10;;;7.90;99.90;;;;;;5076315;28;20473;-75
2021/11/08 03:18:59;;;;;;;188.00;27.23;;;7.90;99.90;;;;;;5076236;28;20450;-75
2021/11/08 03:21:30;;;;;;;114.03;19.57;;;7.90;99.90;;;;;;5074603;28;20986;-75
2021/11/08 03:24:02;;;;;;;139.67;16.40;;;7.90;99.90;;;;;;5082655;28;20862;-75
2021/11/08 03:26:44;;;;;;;168.53;26.27;;;7.90;99.90;;;;;;5096213;28;20505;-75
2021/11/08 03:29:12;;;;;;;79.07;20.23;;;7.80;99.90;;;;;;5077586;28;20848;-75
2021/11/08 03:31:42;;;;;;;123.87;26.13;;;7.80;99.90;;;;;;5075704;28;20494;-75
2021/11/08 03:34:12;;;;;;;150.97;23.63;;;7.80;99.90;;;;;;5076065;28;20495;-75
2021/11/08 03:36:41;;;;;;;151.57;21.13;;;7.80;99.90;;;;;;5075742;28;20460;-75
2021/11/08 03:39:13;;;;;;;132.63;20.63;;;7.80;99.90;;;;;;5075996;28;20464;-75
2021/11/08 03:41:41;;;;;;;112.90;20.90;;;7.80;99.90;;;;;;5093827;28;20524;-75
2021/11/08 03:44:09;;;;;;;193.57;23.43;;;7.80;99.90;;;;;;5094321;28;21005;-75
2021/11/08 03:46:38;;;;;;;144.73;22.20;;;7.80;99.90;;;;;;5095766;28;20472;-75
2021/11/08 03:49:07;;;;;;;168.90;27.37;;;7.80;99.90;;;;;;5083070;28;20536;-75
2021/11/08 03:51:37;;;;;;;129.60;28.83;;;7.80;99.90;;;;;;5089193;28;20514;-75
2021/11/08 03:54:08;;;;;;;173.63;28.27;;;7.80;99.90;;;;;;5094342;28;20522;-75
2021/11/08 03:56:36;;;;;;;182.90;30.07;;;7.80;99.90;;;;;;5086948;28;20477;-75
2021/11/08 03:59:04;;;;;;;114.03;21.30;;;7.80;99.90;;;;;;5081409;28;20956;-75
2021/11/08 04:01:36;;;;;;;145.90;25.23;;;7.80;99.90;;;;;;5094303;28;20466;-75
2021/11/08 04:04:06;;;;;;;129.20;17.07;;;7.80;99.90;;;;;;5095603;28;20480;-75
2021/11/08 04:06:37;;;;;;;157.63;27.73;;;7.80;99.90;;;;;;5095006;28;20476;-75
2021/11/08 04:09:09;;;;;;;107.63;28.50;;;7.90;99.90;;;;;;5079241;28;20581;-75
2021/11/08 04:11:38;;;;;;;112.53;15.13;;;7.90;99.90;;;;;;5073915;28;20575;-75
2021/11/08 04:14:08;;;;;;;107.77;22.67;;;7.90;99.90;;;;;;5074615;28;20467;-75
2021/11/08 04:16:37;;;;;;;135.03;26.50;;;7.90;99.90;;;;;;5072445;28;20505;-75
2021/11/08 04:19:05;;;;;;;89.87;16.90;;;7.90;99.90;;;;;;5074297;28;21029;-75
2021/11/08 04:21:36;;;;;;;124.73;25.73;;;7.90;99.90;;;;;;5074066;28;20469;-75
2021/11/08 04:24:07;;;;;;;165.43;19.83;;;7.90;99.90;;;;;;5075682;28;20440;-75
2021/11/08 04:26:37;;;;;;;155.73;28.30;;;7.90;99.90;;;;;;5083941;28;20513;-75
2021/11/08 04:29:06;;;;;;;138.33;19.60;;;7.80;99.90;;;;;;5094949;28;20466;-75
2021/11/08 04:31:37;;;;;;;65.70;11.13;;;7.80;99.90;;;;;;5093608;28;20563;-75
2021/11/08 04:34:18;;;;;;;114.87;20.43;;;7.80;99.90;;;;;;5093617;28;20966;-75
2021/11/08 04:37:08;;;;;;;157.27;18.17;;;7.80;99.90;;;;;;5085948;28;20486;-75
2021/11/08 04:39:54;;;;;;;116.03;21.10;;;7.80;99.90;;;;;;5074800;28;20478;-75
2021/11/08 04:42:26;;;;;;;249.93;32.97;;;7.80;99.90;;;;;;5088245;28;20575;-75
2021/11/08 04:48:11;;;;;;;164.03;20.57;;;7.80;99.90;;;;;;5068307;28;20444;-75
2021/11/08 04:50:45;;;;;;;164.63;23.90;;;7.80;99.90;;;;;;5088774;28;20478;-75
2021/11/08 04:53:23;;;;;;;166.40;25.87;;;7.80;99.90;;;;;;5072956;28;20477;-75
2021/11/08 05:23:57;;;;;;;209.33;29.30;;;7.70;99.90;;;;;;5067428;28;20494;-75
2021/11/08 05:31:54;;;;;;;177.23;27.90;;;7.70;99.90;;;;;;5072278;28;20566;-75
2021/11/08 05:34:22;;;;;;;131.40;20.53;;;7.70;99.90;;;;;;5073388;28;20445;-75
2021/11/08 05:36:50;;;;;;;159.90;23.93;;;7.60;99.90;;;;;;5073807;28;20435;-75
2021/11/08 05:39:18;;;;;;;206.20;32.13;;;7.60;99.90;;;;;;5073399;28;20974;-75
2021/11/08 05:41:47;;;;;;;107.53;21.30;;;7.60;99.90;;;;;;5072146;28;20517;-75
2021/11/08 05:44:17;;;;;;;118.50;23.47;;;7.60;99.90;;;;;;5073356;28;20438;-75
2021/11/08 05:46:47;;;;;;;133.83;16.03;;;7.60;99.90;;;;;;5079377;28;20464;-75
2021/11/08 05:49:17;;;;;;;69.77;14.77;;;7.60;99.90;;;;;;5094000;28;20443;-75
2021/11/08 05:51:45;;;;;;;143.40;30.33;;;7.60;99.90;;;;;;5093106;28;20478;-75
2021/11/08 05:54:13;;;;;;;133.23;25.40;;;7.60;99.90;;;;;;5094887;28;20434;-75
2021/11/08 05:56:54;;;;;;;12.15;3.80;;;7.60;99.90;;;;;;5091599;28;20490;-75
2021/11/08 05:59:44;;;;;;;196.00;34.60;;;7.60;99.90;;;;;;5093471;28;20229;-75
2021/11/08 06:49:19;;;;;;;142.20;24.60;;;7.30;99.90;;;;;;5091822;28;20442;-75
2021/11/08 06:51:50;;;;;;;126.43;25.43;;;7.30;99.90;;;;;;5091633;28;20566;-74
2021/11/08 06:54:19;;;;;;;137.63;21.33;;;7.30;99.90;;;;;;5093386;28;20424;-75
2021/11/08 06:56:50;;;;;;;164.70;35.13;;;7.30;99.90;;;;;;5091707;28;20477;-75
2021/11/08 06:59:19;;;;;;;174.10;22.67;;;7.30;99.90;;;;;;5091684;28;20531;-75
2021/11/08 07:01:49;;;;;;;134.27;26.60;;;7.40;99.90;;;;;;5091867;28;20574;-75
2021/11/08 07:04:19;;;;;;;112.47;22.67;;;7.30;99.90;;;;;;5095240;28;20854;-75
2021/11/08 07:06:48;;;;;;;160.43;19.83;;;7.40;99.90;;;;;;5096566;28;20452;-75
2021/11/08 07:09:17;;;;;;;81.57;17.40;;;7.40;99.90;;;;;;5096693;28;20522;-75
2021/11/08 07:11:46;;;;;;;161.23;26.53;;;7.40;99.90;;;;;;5096460;28;20556;-75
2021/11/08 07:14:15;;;;;;;133.87;21.07;;;7.40;99.90;;;;;;5096427;28;20940;-75
2021/11/08 07:16:45;;;;;;;133.77;17.40;;;7.40;99.90;;;;;;5095191;28;20479;-74
2021/11/08 07:19:14;;;;;;;146.60;31.70;;;7.40;99.90;;;;;;5095047;28;20513;-75
2021/11/08 07:21:44;;;;;;;92.50;17.83;;;7.40;99.90;;;;;;5096495;28;20448;-75
2021/11/08 07:24:13;;;;;;;65.40;17.03;;;7.40;99.90;;;;;;5096568;28;20857;-75
2021/11/08 07:26:41;;;;;;;90.30;17.67;;;7.50;99.90;;;;;;5096368;28;20468;-75
2021/11/08 07:29:12;;;;;;;124.27;18.27;;;7.50;99.90;;;;;;5094954;28;20869;-75
2021/11/08 07:31:40;;;;;;;128.03;21.20;;;7.50;99.90;;;;;;5094694;28;20509;-75
2021/11/08 07:34:10;;;;;;;111.93;17.50;;;7.50;99.90;;;;;;5094758;28;20532;-75
2021/11/08 07:36:39;;;;;;;93.53;19.53;;;7.50;99.90;;;;;;5096153;28;20491;-75
2021/11/08 07:39:08;;;;;;;210.13;27.07;;;7.50;99.90;;;;;;5096169;28;20434;-75
2021/11/08 07:41:37;;;;;;;156.20;24.70;;;7.60;99.90;;;;;;5095005;28;20569;-75
2021/11/08 07:44:08;;;;;;;80.90;21.13;;;7.50;99.90;;;;;;5095009;28;20509;-75
2021/11/08 07:46:37;;;;;;;185.73;28.17;;;7.60;99.90;;;;;;5096758;28;20538;-74
2021/11/08 07:49:05;;;;;;;122.77;20.10;;;7.60;99.90;;;;;;5095175;28;20451;-74
2021/11/08 07:51:33;;;;;;;146.67;25.93;;;7.60;99.90;;;;;;5095061;28;20834;-75
2021/11/08 07:54:02;;;;;;;106.73;19.60;;;7.60;99.90;;;;;;5095096;28;20545;-75
2021/11/08 07:56:31;;;;;;;110.57;21.33;;;7.60;99.90;;;;;;5096322;28;20489;-75
2021/11/08 07:58:59;;;;;;;149.43;24.43;;;7.60;99.90;;;;;;5096299;28;20485;-75
2021/11/08 08:01:28;;;;;;;146.77;21.63;;;7.60;99.90;;;;;;5094716;28;20552;-75
2021/11/08 08:03:56;;;;;;;84.03;23.03;;;7.60;99.90;;;;;;5094990;28;20833;-75
2021/11/08 08:06:24;;;;;;;100.03;23.27;;;7.70;99.90;;;;;;5095843;28;20559;-75
2021/11/08 08:08:52;;;;;;;160.07;24.50;;;7.70;99.90;;;;;;5094798;28;20487;-75
2021/11/08 08:11:22;;;;;;;105.87;17.87;;;7.80;99.90;;;;;;5095706;28;20454;-75
2021/11/08 08:13:52;;;;;;;130.93;19.17;;;7.80;99.90;;;;;;5096441;28;20778;-75
2021/11/08 08:16:21;;;;;;;11.43;3.35;;;7.80;99.90;;;;;;5093565;28;20544;-74
2021/11/08 08:18:51;;;;;;;170.47;46.07;;;8.00;99.90;;;;;;5094603;28;20198;-74
2021/11/08 08:21:21;;;;;;;217.00;33.40;;;8.00;99.90;;;;;;5096012;28;20492;-75
2021/11/08 08:23:54;;;;;;;90.90;17.53;;;8.00;99.90;;;;;;5096081;28;20573;-75
2021/11/08 08:26:24;;;;;;;111.03;26.00;;;8.00;99.90;;;;;;5095917;28;20505;-75
2021/11/08 08:28:54;;;;;;;224.70;40.03;;;8.10;99.90;;;;;;5096354;28;20451;-75
2021/11/08 08:31:23;;;;;;;109.37;22.03;;;8.10;99.90;;;;;;5094334;28;21067;-74
2021/11/08 08:33:51;;;;;;;168.20;23.03;;;8.10;99.90;;;;;;5094335;28;20498;-75
2021/11/08 08:36:19;;;;;;;112.63;24.40;;;8.10;99.90;;;;;;5095600;28;20436;-75
2021/11/08 08:38:50;;;;;;;127.53;20.33;;;8.20;99.90;;;;;;5094284;28;20457;-75
2021/11/08 08:41:19;;;;;;;183.47;31.03;;;8.20;99.90;;;;;;5094019;28;20502;-74
2021/11/08 08:43:48;;;;;;;124.13;27.97;;;8.30;99.90;;;;;;5095188;28;20532;-74
2021/11/08 08:46:17;;;;;;;124.67;25.33;;;8.30;99.90;;;;;;5093883;28;20491;-74
2021/11/08 08:48:45;;;;;;;126.60;25.73;;;8.40;99.90;;;;;;5095017;28;20862;-75
2021/11/08 08:51:13;;;;;;;80.37;19.23;;;8.40;99.90;;;;;;5093101;28;20558;-75
2021/11/08 08:53:42;;;;;;;129.63;35.07;;;8.50;99.90;;;;;;5093278;28;20903;-75
2021/11/08 08:56:25;;;;;;;173.73;31.70;;;8.50;99.90;;;;;;5093250;28;20501;-75
2021/11/08 08:58:56;;;;;;;127.90;27.90;;;8.60;99.90;;;;;;5093108;28;20446;-75
2021/11/08 09:01:27;;;;;;;134.53;35.00;;;8.60;99.90;;;;;;5093039;28;20478;-75
2021/11/08 09:03:56;;;;;;;139.80;27.30;;;8.70;99.90;;;;;;5093990;28;20504;-75
2021/11/08 09:06:25;;;;;;;96.07;21.63;;;8.70;99.90;;;;;;5093325;28;20519;-75
2021/11/08 09:08:55;;;;;;;200.27;37.23;;;8.70;99.90;;;;;;5093549;28;20451;-75
2021/11/08 09:11:24;;;;;;;123.30;25.13;;;8.80;99.90;;;;;;5092996;28;21079;-75
2021/11/08 09:13:53;;;;;;;184.17;35.93;;;8.90;99.90;;;;;;5094304;28;20463;-75
2021/11/08 09:16:22;;;;;;;147.33;38.37;;;8.90;99.90;;;;;;5092975;28;20560;-75
2021/11/08 09:18:53;;;;;;;181.73;35.53;;;9.00;99.90;;;;;;5094407;28;20960;-75
2021/11/08 09:21:23;;;;;;;160.47;29.47;;;9.00;99.90;;;;;;5093089;28;20472;-75
2021/11/08 09:23:53;;;;;;;135.40;29.77;;;9.10;99.90;;;;;;5092861;28;20478;-75
2021/11/08 09:26:21;;;;;;;185.63;42.17;;;9.10;99.90;;;;;;5093528;28;20468;-75
2021/11/08 09:28:50;;;;;;;246.70;43.70;;;9.20;99.90;;;;;;5092469;28;20473;-75
2021/11/08 09:31:20;;;;;;;124.47;26.57;;;9.20;99.90;;;;;;5093757;28;20462;-75
2021/11/08 09:33:49;;;;;;;143.53;32.00;;;9.30;99.90;;;;;;5093423;28;20459;-76
2021/11/08 09:36:19;;;;;;;133.47;38.00;;;9.30;99.90;;;;;;5094040;28;20866;-75
2021/11/08 09:38:51;;;;;;;192.93;36.37;;;9.40;99.90;;;;;;5094057;28;20432;-75
2021/11/08 09:41:21;;;;;;;143.53;26.50;;;9.50;99.90;;;;;;5092790;28;20979;-75
2021/11/08 09:43:53;;;;;;;173.00;32.20;;;9.50;99.90;;;;;;5092261;28;20879;-75
2021/11/08 09:46:23;;;;;;;332.53;50.80;;;9.60;99.90;;;;;;5093861;28;20462;-75
2021/11/08 09:48:53;;;;;;;177.03;38.27;;;9.60;99.90;;;;;;5093556;28;20473;-75
2021/11/08 09:51:23;;;;;;;197.33;38.60;;;9.60;99.90;;;;;;5092496;28;21027;-75
2021/11/08 09:53:52;;;;;;;130.17;22.13;;;9.70;99.90;;;;;;5093893;28;20868;-76
2021/11/08 09:56:20;;;;;;;239.40;47.30;;;9.80;99.90;;;;;;5093588;28;21037;-75
2021/11/08 09:58:48;;;;;;;133.23;28.60;;;9.80;99.90;;;;;;5092264;28;20447;-76
2021/11/08 10:01:27;;;;;;;319.40;62.77;;;9.90;99.90;;;;;;5092115;28;20888;-75
2021/11/08 10:03:56;;;;;;;308.33;53.20;;;9.90;99.90;;;;;;5092216;28;20440;-75
2021/11/08 10:06:26;;;;;;;417.57;56.17;;;9.90;99.90;;;;;;5093433;28;20486;-76
2021/11/08 10:08:55;;;;;;;223.93;44.57;;;10.00;99.90;;;;;;5093636;28;21000;-76
2021/11/08 10:11:23;;;;;;;369.80;53.37;;;10.00;99.90;;;;;;5093528;28;20460;-75
2021/11/08 10:13:53;;;;;;;352.37;55.00;;;10.10;99.90;;;;;;5092053;28;20543;-75
2021/11/08 10:16:23;;;;;;;299.53;51.00;;;10.10;99.90;;;;;;5093272;28;20432;-76
2021/11/08 10:18:54;;;;;;;432.23;83.43;;;10.10;99.90;;;;;;5092100;28;20484;-75
2021/11/08 10:21:28;;;;;;;425.10;72.00;;;10.10;99.90;;;;;;5092211;28;20464;-75
2021/11/08 10:23:58;;;;;;;387.53;64.63;;;10.20;99.90;;;;;;5093639;28;20413;-75
2021/11/08 10:26:28;;;;;;;263.30;45.53;;;10.20;99.90;;;;;;5091900;28;20530;-75
2021/11/08 10:28:58;;;;;;;430.23;93.77;;;10.30;99.90;;;;;;5093125;28;20205;-76
2021/11/08 10:31:28;;;;;;;369.27;83.47;;;10.30;99.90;;;;;;5091736;28;20510;-76
2021/11/08 10:33:58;;;;;;;393.20;85.33;;;10.30;99.90;;;;;;5091977;28;20445;-75
2021/11/08 10:36:27;;;;;;;325.10;60.00;;;10.30;99.90;;;;;;5091873;28;21026;-75
2021/11/08 10:38:59;;;;;;;412.00;83.33;;;10.30;99.90;;;;;;5094804;28;20945;-75
2021/11/08 10:41:30;;;;;;;395.20;62.87;;;10.40;99.90;;;;;;5097059;28;20456;-76
2021/11/08 10:44:04;;;;;;;363.60;48.97;;;10.40;99.90;;;;;;5097027;28;20440;-76
2021/11/08 10:46:35;;;;;;;419.13;90.63;;;10.40;99.90;;;;;;5095726;28;20459;-76
2021/11/08 10:49:08;;;;;;;513.63;88.60;;;10.40;99.90;;;;;;5096964;28;20857;-75
2021/11/08 10:51:39;;;;;;;371.47;84.13;;;10.40;99.90;;;;;;5095835;28;20460;-76
2021/11/08 10:54:10;;;;;;;403.03;76.70;;;10.50;99.90;;;;;;5095585;28;20455;-76
2021/11/08 10:56:42;;;;;;;424.20;69.27;;;10.50;99.90;;;;;;5095542;28;20478;-76
2021/11/08 10:59:12;;;;;;;362.70;75.57;;;10.50;99.90;;;;;;5095383;28;20528;-76
2021/11/08 11:01:45;;;;;;;440.07;68.80;;;10.50;99.90;;;;;;5096910;28;20876;-75
2021/11/08 11:04:14;;;;;;;369.13;68.60;;;10.50;99.90;;;;;;5096611;28;20862;-76
2021/11/08 11:06:46;;;;;;;320.20;51.90;;;10.60;99.90;;;;;;5095344;28;20444;-75
2021/11/08 11:09:20;;;;;;;402.90;74.87;;;10.50;99.90;;;;;;5096577;28;20835;-75
2021/11/08 11:12:03;;;;;;;411.13;68.93;;;10.50;99.90;;;;;;5095227;28;20514;-76
2021/11/08 11:14:34;;;;;;;476.87;67.53;;;10.50;99.90;;;;;;5095180;28;20856;-75
2021/11/08 11:17:07;;;;;;;301.97;62.67;;;10.50;99.90;;;;;;5096447;28;20951;-75
2021/11/08 11:19:37;;;;;;;279.30;64.60;;;10.50;99.90;;;;;;5095208;28;20546;-75
2021/11/08 11:22:10;;;;;;;316.20;54.27;;;10.50;99.90;;;;;;5096250;28;20481;-76
2021/11/08 11:24:46;;;;;;;234.07;39.47;;;10.50;99.90;;;;;;5096506;28;20440;-75
2021/11/08 11:27:28;;;;;;;170.67;28.57;;;10.50;99.90;;;;;;5095021;28;20440;-75
2021/11/08 11:30:14;;;;;;;178.10;36.13;;;10.50;99.90;;;;;;5094870;28;20468;-76
2021/11/08 11:32:42;;;;;;;340.43;60.27;;;10.50;99.90;;;;;;5094874;28;20918;-75
2021/11/08 11:35:17;;;;;;;247.87;41.80;;;10.50;99.90;;;;;;5096024;28;20436;-76
2021/11/08 11:37:56;;;;;;;119.93;28.57;;;10.50;99.90;;;;;;5094797;28;20451;-76
2021/11/08 11:40:25;;;;;;;275.93;54.97;;;10.50;99.90;;;;;;5094635;28;20521;-75
2021/11/08 11:42:56;;;;;;;292.10;52.50;;;10.50;99.90;;;;;;5094511;28;20448;-75
2021/11/08 11:45:25;;;;;;;229.07;47.90;;;10.50;99.90;;;;;;5095885;28;20420;-76
2021/11/08 11:47:58;;;;;;;175.57;40.33;;;10.60;99.90;;;;;;5094506;28;20807;-76
2021/11/08 11:50:30;;;;;;;224.23;45.27;;;10.60;99.90;;;;;;5095301;28;20460;-76
2021/11/08 11:53:00;;;;;;;257.43;46.40;;;10.60;99.90;;;;;;5094503;28;20977;-75
2021/11/08 11:55:28;;;;;;;148.33;32.37;;;10.60;99.90;;;;;;5095719;28;20449;-75
2021/11/08 11:58:00;;;;;;;211.67;33.77;;;10.60;99.90;;;;;;5094287;28;20444;-75
2021/11/08 12:00:31;;;;;;;227.93;38.83;;;10.60;99.90;;;;;;5094328;28;20555;-76
2021/11/08 12:03:00;;;;;;;270.20;39.37;;;10.70;99.90;;;;;;5095775;28;20450;-76
2021/11/08 12:05:29;;;;;;;226.90;47.37;;;10.70;99.90;;;;;;5094253;28;20448;-76
2021/11/08 12:08:02;;;;;;;260.97;36.03;;;10.70;99.90;;;;;;5096150;28;20531;-75
2021/11/08 12:10:30;;;;;;;222.40;35.37;;;10.70;99.90;;;;;;5094055;28;20992;-75
2021/11/08 12:13:13;;;;;;;242.97;36.87;;;10.70;99.90;;;;;;5094098;28;20447;-76
2021/11/08 12:15:42;;;;;;;170.60;34.00;;;10.70;99.90;;;;;;5095660;28;20428;-76
2021/11/08 12:18:13;;;;;;;194.47;39.20;;;10.70;99.90;;;;;;5093940;28;20498;-75
2021/11/08 12:20:44;;;;;;;323.60;57.03;;;10.70;99.90;;;;;;5094309;28;20547;-76
2021/11/08 12:23:21;;;;;;;231.83;33.30;;;10.70;99.90;;;;;;5096451;28;20899;-75
2021/11/08 12:25:50;;;;;;;309.70;54.23;;;10.80;99.90;;;;;;5093795;28;20471;-75
2021/11/08 12:28:22;;;;;;;316.93;50.47;;;10.80;99.90;;;;;;5093846;28;20455;-75
2021/11/08 12:30:53;;;;;;;333.90;51.13;;;10.80;99.90;;;;;;5095425;28;20496;-76
2021/11/08 12:33:26;;;;;;;365.37;58.80;;;10.80;99.90;;;;;;5095320;28;20432;-75
2021/11/08 12:35:56;;;;;;;243.73;50.33;;;10.90;99.90;;;;;;5093713;28;20463;-76
2021/11/08 12:38:29;;;;;;;329.57;49.40;;;10.90;99.90;;;;;;5094992;28;20455;-76
2021/11/08 12:41:09;;;;;;;292.57;49.73;;;10.90;99.90;;;;;;5093666;28;20885;-76
2021/11/08 12:43:40;;;;;;;302.63;43.13;;;10.90;99.90;;;;;;5094755;28;20813;-75
2021/11/08 12:46:13;;;;;;;382.67;59.67;;;10.90;99.90;;;;;;5093489;28;20527;-75
2021/11/08 12:48:42;;;;;;;230.20;42.17;;;10.90;99.90;;;;;;5093429;28;20456;-75
2021/11/08 12:51:13;;;;;;;482.03;75.00;;;10.90;99.90;;;;;;5094686;28;20555;-76
2021/11/08 12:53:45;;;;;;;334.00;60.17;;;11.00;99.90;;;;;;5094819;28;20436;-75
2021/11/08 12:56:26;;;;;;;302.63;51.53;;;10.90;99.90;;;;;;5094795;28;20917;-75
2021/11/08 12:58:58;;;;;;;270.27;60.30;;;10.90;99.90;;;;;;5093172;28;20512;-75
2021/11/08 13:01:39;;;;;;;295.17;56.00;;;10.90;99.90;;;;;;5093432;28;20505;-75
2021/11/08 13:04:09;;;;;;;336.30;63.30;;;10.90;99.90;;;;;;5093120;28;20440;-75
2021/11/08 13:06:38;;;;;;;351.10;63.40;;;10.90;99.90;;;;;;5094355;28;20448;-75
2021/11/08 13:09:11;;;;;;;286.80;44.67;;;11.00;99.90;;;;;;5094110;28;20496;-75
2021/11/08 13:11:41;;;;;;;213.77;38.93;;;11.00;99.90;;;;;;5093405;28;20460;-76
2021/11/08 13:14:10;;;;;;;432.33;76.43;;;11.10;99.90;;;;;;5093992;28;20825;-75
2021/11/08 13:16:41;;;;;;;315.03;54.57;;;11.10;99.90;;;;;;5092808;28;20444;-76
2021/11/08 13:19:12;;;;;;;197.70;33.07;;;11.10;99.90;;;;;;5094011;28;20416;-75
2021/11/08 13:21:40;;;;;;;317.10;54.60;;;11.20;99.90;;;;;;5092607;28;20532;-76
2021/11/08 13:24:12;;;;;;;261.77;53.67;;;11.20;99.90;;;;;;5093951;28;20941;-75
2021/11/08 13:26:43;;;;;;;362.17;62.50;;;11.20;99.90;;;;;;5092741;28;20475;-76
2021/11/08 13:29:17;;;;;;;325.53;51.63;;;11.30;99.90;;;;;;5092667;28;20828;-76
2021/11/08 13:31:45;;;;;;;274.57;52.37;;;11.30;99.90;;;;;;5093858;28;20482;-75
2021/11/08 13:34:15;;;;;;;261.33;57.53;;;11.30;99.90;;;;;;5093801;28;20933;-75
2021/11/08 13:36:44;;;;;;;218.60;49.83;;;11.30;99.90;;;;;;5092492;28;20870;-75
2021/11/08 13:39:14;;;;;;;223.10;40.57;;;11.30;99.90;;;;;;5094040;28;20850;-75
2021/11/08 13:41:42;;;;;;;286.10;62.27;;;11.30;99.90;;;;;;5092337;28;21071;-76
2021/11/08 13:44:12;;;;;;;429.47;79.87;;;11.30;99.90;;;;;;5093601;28;20456;-76
2021/11/08 13:46:42;;;;;;;437.07;74.97;;;11.30;99.90;;;;;;5093630;28;20436;-76
2021/11/08 13:49:12;;;;;;;288.13;56.43;;;11.30;99.90;;;;;;5092301;28;20464;-75
2021/11/08 13:51:45;;;;;;;422.60;73.13;;;11.30;99.90;;;;;;5092614;28;20471;-75
2021/11/08 13:54:17;;;;;;;327.90;52.13;;;11.30;99.90;;;;;;5093620;28;20474;-75
2021/11/08 13:56:49;;;;;;;223.90;40.77;;;11.30;99.90;;;;;;5093609;28;20424;-75
2021/11/08 13:59:24;;;;;;;409.03;58.20;;;11.30;99.90;;;;;;5092366;28;20479;-75
2021/11/08 14:01:55;;;;;;;347.73;68.87;;;11.30;99.90;;;;;;5092303;28;20972;-75
2021/11/08 14:04:32;;;;;;;430.13;66.67;;;11.20;99.90;;;;;;5092319;28;20444;-76
2021/11/08 14:07:01;;;;;;;295.23;40.83;;;11.20;99.90;;;;;;5092218;28;20432;-76